sensor_id;sensor_type;location;lat;lon;timestamp;P1;durP1;ratioP1;P2;durP2;ratioP2
44434;SDS011;30138;20.964;105.830;2022-08-03T00:01:29;38.30;;;22.63;;
44434;SDS011;30138;20.964;105.830;2022-08-03T00:06:37;41.80;;;23.27;;
44434;SDS011;30138;20.964;105.830;2022-08-03T00:11:46;35.13;;;21.15;;
44434;SDS011;30138;20.964;105.830;2022-08-03T00:16:56;34.95;;;21.60;;
44434;SDS011;30138;20.964;105.830;2022-08-03T00:22:05;43.08;;;24.15;;
44434;SDS011;30138;20.964;105.830;2022-08-03T00:27:13;36.42;;;22.98;;
44434;SDS011;30138;20.964;105.830;2022-08-03T00:32:23;39.30;;;22.65;;
44434;SDS011;30138;20.964;105.830;2022-08-03T00:37:31;33.92;;;22.73;;
44434;SDS011;30138;20.964;105.830;2022-08-03T00:42:46;30.08;;;22.75;;
44434;SDS011;30138;20.964;105.830;2022-08-03T00:48:00;37.03;;;23.52;;
44434;SDS011;30138;20.964;105.830;2022-08-03T00:53:10;32.53;;;22.98;;
44434;SDS011;30138;20.964;105.830;2022-08-03T00:58:18;37.05;;;22.70;;
44434;SDS011;30138;20.964;105.830;2022-08-03T01:03:28;32.42;;;22.63;;
44434;SDS011;30138;20.964;105.830;2022-08-03T01:08:37;31.55;;;22.88;;
44434;SDS011;30138;20.964;105.830;2022-08-03T01:13:52;28.23;;;20.70;;
44434;SDS011;30138;20.964;105.830;2022-08-03T01:19:12;25.80;;;19.95;;
44434;SDS011;30138;20.964;105.830;2022-08-03T01:24:43;25.20;;;19.52;;
44434;SDS011;30138;20.964;105.830;2022-08-03T01:30:07;23.15;;;18.60;;
44434;SDS011;30138;20.964;105.830;2022-08-03T01:35:17;23.63;;;17.63;;
44434;SDS011;30138;20.964;105.830;2022-08-03T01:40:33;21.08;;;18.13;;
44434;SDS011;30138;20.964;105.830;2022-08-03T01:45:43;22.83;;;16.90;;
44434;SDS011;30138;20.964;105.830;2022-08-03T01:50:51;20.70;;;16.20;;
44434;SDS011;30138;20.964;105.830;2022-08-03T01:56:01;18.23;;;16.23;;
44434;SDS011;30138;20.964;105.830;2022-08-03T02:01:12;19.73;;;16.90;;
44434;SDS011;30138;20.964;105.830;2022-08-03T02:06:22;17.60;;;15.35;;
44434;SDS011;30138;20.964;105.830;2022-08-03T02:11:32;20.02;;;15.48;;
44434;SDS011;30138;20.964;105.830;2022-08-03T02:16:43;18.35;;;16.08;;
44434;SDS011;30138;20.964;105.830;2022-08-03T02:21:52;18.92;;;15.90;;
44434;SDS011;30138;20.964;105.830;2022-08-03T02:27:00;17.92;;;15.15;;
44434;SDS011;30138;20.964;105.830;2022-08-03T02:32:14;21.88;;;15.60;;
44434;SDS011;30138;20.964;105.830;2022-08-03T02:37:30;20.45;;;15.60;;
44434;SDS011;30138;20.964;105.830;2022-08-03T02:42:42;21.52;;;15.85;;
44434;SDS011;30138;20.964;105.830;2022-08-03T02:47:59;19.13;;;15.45;;
44434;SDS011;30138;20.964;105.830;2022-08-03T02:53:09;18.35;;;15.38;;
44434;SDS011;30138;20.964;105.830;2022-08-03T02:58:18;20.33;;;15.60;;
44434;SDS011;30138;20.964;105.830;2022-08-03T03:03:30;18.58;;;14.35;;
44434;SDS011;30138;20.964;105.830;2022-08-03T03:08:39;17.10;;;14.15;;
44434;SDS011;30138;20.964;105.830;2022-08-03T03:13:47;17.00;;;14.43;;
44434;SDS011;30138;20.964;105.830;2022-08-03T03:18:57;23.23;;;15.45;;
44434;SDS011;30138;20.964;105.830;2022-08-03T03:24:06;16.67;;;14.82;;
44434;SDS011;30138;20.964;105.830;2022-08-03T03:29:14;17.45;;;14.88;;
44434;SDS011;30138;20.964;105.830;2022-08-03T03:34:24;17.40;;;14.68;;
44434;SDS011;30138;20.964;105.830;2022-08-03T03:39:33;16.77;;;14.60;;
44434;SDS011;30138;20.964;105.830;2022-08-03T03:44:41;18.13;;;13.70;;
44434;SDS011;30138;20.964;105.830;2022-08-03T03:49:51;19.63;;;14.75;;
44434;SDS011;30138;20.964;105.830;2022-08-03T04:00:07;15.48;;;13.88;;
44434;SDS011;30138;20.964;105.830;2022-08-03T04:05:18;19.63;;;15.48;;
44434;SDS011;30138;20.964;105.830;2022-08-03T04:10:42;18.30;;;14.52;;
44434;SDS011;30138;20.964;105.830;2022-08-03T04:16:06;19.10;;;14.75;;
44434;SDS011;30138;20.964;105.830;2022-08-03T04:21:18;17.33;;;15.27;;
44434;SDS011;30138;20.964;105.830;2022-08-03T04:26:28;16.63;;;14.97;;
44434;SDS011;30138;20.964;105.830;2022-08-03T04:31:38;19.27;;;15.40;;
44434;SDS011;30138;20.964;105.830;2022-08-03T04:36:48;19.42;;;15.60;;
44434;SDS011;30138;20.964;105.830;2022-08-03T04:42:05;22.33;;;16.98;;
44434;SDS011;30138;20.964;105.830;2022-08-03T04:47:16;18.95;;;16.95;;
44434;SDS011;30138;20.964;105.830;2022-08-03T04:52:26;27.73;;;17.25;;
44434;SDS011;30138;20.964;105.830;2022-08-03T04:57:34;25.00;;;19.23;;
44434;SDS011;30138;20.964;105.830;2022-08-03T05:02:42;26.45;;;20.45;;
44434;SDS011;30138;20.964;105.830;2022-08-03T05:07:51;23.98;;;19.17;;
44434;SDS011;30138;20.964;105.830;2022-08-03T05:12:59;27.48;;;19.48;;
44434;SDS011;30138;20.964;105.830;2022-08-03T05:18:07;23.02;;;20.15;;
44434;SDS011;30138;20.964;105.830;2022-08-03T05:23:16;28.55;;;19.48;;
44434;SDS011;30138;20.964;105.830;2022-08-03T05:28:28;27.30;;;20.58;;
44434;SDS011;30138;20.964;105.830;2022-08-03T05:33:37;31.33;;;20.60;;
44434;SDS011;30138;20.964;105.830;2022-08-03T05:38:49;27.27;;;22.58;;
44434;SDS011;30138;20.964;105.830;2022-08-03T05:43:56;30.35;;;22.27;;
44434;SDS011;30138;20.964;105.830;2022-08-03T05:49:04;28.95;;;23.02;;
44434;SDS011;30138;20.964;105.830;2022-08-03T05:54:14;30.90;;;24.67;;
44434;SDS011;30138;20.964;105.830;2022-08-03T05:59:23;32.25;;;25.42;;
44434;SDS011;30138;20.964;105.830;2022-08-03T06:04:31;34.63;;;27.40;;
44434;SDS011;30138;20.964;105.830;2022-08-03T06:09:40;39.78;;;32.97;;
44434;SDS011;30138;20.964;105.830;2022-08-03T06:14:49;34.43;;;30.73;;
44434;SDS011;30138;20.964;105.830;2022-08-03T06:19:56;33.20;;;29.58;;
44434;SDS011;30138;20.964;105.830;2022-08-03T06:25:06;36.40;;;32.17;;
44434;SDS011;30138;20.964;105.830;2022-08-03T06:30:15;38.92;;;32.58;;
44434;SDS011;30138;20.964;105.830;2022-08-03T06:35:23;41.13;;;33.70;;
44434;SDS011;30138;20.964;105.830;2022-08-03T06:40:33;38.20;;;34.08;;
44434;SDS011;30138;20.964;105.830;2022-08-03T06:50:48;38.83;;;33.35;;
44434;SDS011;30138;20.964;105.830;2022-08-03T06:55:57;42.17;;;34.08;;
44434;SDS011;30138;20.964;105.830;2022-08-03T07:01:05;42.08;;;33.25;;
44434;SDS011;30138;20.964;105.830;2022-08-03T07:06:13;36.40;;;32.58;;
44434;SDS011;30138;20.964;105.830;2022-08-03T07:11:24;37.55;;;33.13;;
44434;SDS011;30138;20.964;105.830;2022-08-03T07:16:32;44.25;;;34.30;;
44434;SDS011;30138;20.964;105.830;2022-08-03T07:21:39;38.95;;;33.15;;
44434;SDS011;30138;20.964;105.830;2022-08-03T07:26:50;35.70;;;31.73;;
44434;SDS011;30138;20.964;105.830;2022-08-03T07:31:57;38.85;;;32.47;;
44434;SDS011;30138;20.964;105.830;2022-08-03T07:37:05;38.53;;;30.85;;
44434;SDS011;30138;20.964;105.830;2022-08-03T07:42:15;35.30;;;31.55;;
44434;SDS011;30138;20.964;105.830;2022-08-03T07:47:24;36.50;;;31.85;;
44434;SDS011;30138;20.964;105.830;2022-08-03T07:52:34;37.33;;;30.90;;
44434;SDS011;30138;20.964;105.830;2022-08-03T07:58:03;38.45;;;30.30;;
44434;SDS011;30138;20.964;105.830;2022-08-03T08:03:13;34.95;;;29.13;;
44434;SDS011;30138;20.964;105.830;2022-08-03T08:08:22;33.50;;;29.83;;
44434;SDS011;30138;20.964;105.830;2022-08-03T08:13:33;34.47;;;28.98;;
44434;SDS011;30138;20.964;105.830;2022-08-03T08:18:40;33.72;;;30.13;;
44434;SDS011;30138;20.964;105.830;2022-08-03T08:23:49;35.72;;;29.90;;
44434;SDS011;30138;20.964;105.830;2022-08-03T08:28:58;34.42;;;28.45;;
44434;SDS011;30138;20.964;105.830;2022-08-03T08:34:06;33.35;;;28.73;;
44434;SDS011;30138;20.964;105.830;2022-08-03T08:39:14;31.83;;;28.40;;
44434;SDS011;30138;20.964;105.830;2022-08-03T08:44:24;36.33;;;30.63;;
44434;SDS011;30138;20.964;105.830;2022-08-03T08:49:31;35.63;;;30.60;;
44434;SDS011;30138;20.964;105.830;2022-08-03T08:54:43;38.40;;;32.13;;
44434;SDS011;30138;20.964;105.830;2022-08-03T08:59:53;36.97;;;30.52;;
44434;SDS011;30138;20.964;105.830;2022-08-03T09:10:10;36.58;;;30.55;;
44434;SDS011;30138;20.964;105.830;2022-08-03T09:15:23;39.65;;;32.38;;
44434;SDS011;30138;20.964;105.830;2022-08-03T09:20:33;35.35;;;31.42;;
44434;SDS011;30138;20.964;105.830;2022-08-03T09:25:41;37.33;;;32.60;;
44434;SDS011;30138;20.964;105.830;2022-08-03T09:30:58;35.70;;;31.80;;
44434;SDS011;30138;20.964;105.830;2022-08-03T09:36:06;38.80;;;32.72;;
44434;SDS011;30138;20.964;105.830;2022-08-03T09:41:17;39.50;;;32.28;;
44434;SDS011;30138;20.964;105.830;2022-08-03T09:46:27;39.63;;;32.13;;
44434;SDS011;30138;20.964;105.830;2022-08-03T09:51:35;43.72;;;32.17;;
44434;SDS011;30138;20.964;105.830;2022-08-03T09:56:44;35.13;;;31.05;;
44434;SDS011;30138;20.964;105.830;2022-08-03T10:01:54;44.08;;;33.30;;
44434;SDS011;30138;20.964;105.830;2022-08-03T10:07:04;40.53;;;34.10;;
44434;SDS011;30138;20.964;105.830;2022-08-03T10:12:13;38.92;;;32.53;;
44434;SDS011;30138;20.964;105.830;2022-08-03T10:17:23;39.40;;;33.40;;
44434;SDS011;30138;20.964;105.830;2022-08-03T10:22:31;41.47;;;33.50;;
44434;SDS011;30138;20.964;105.830;2022-08-03T10:27:41;43.33;;;33.78;;
44434;SDS011;30138;20.964;105.830;2022-08-03T10:32:55;37.97;;;33.20;;
44434;SDS011;30138;20.964;105.830;2022-08-03T10:38:09;45.92;;;32.72;;
44434;SDS011;30138;20.964;105.830;2022-08-03T10:43:37;38.25;;;33.38;;
44434;SDS011;30138;20.964;105.830;2022-08-03T10:48:55;46.35;;;34.03;;
44434;SDS011;30138;20.964;105.830;2022-08-03T10:54:05;43.72;;;36.00;;
44434;SDS011;30138;20.964;105.830;2022-08-03T10:59:12;42.72;;;34.13;;
44434;SDS011;30138;20.964;105.830;2022-08-03T11:04:22;44.42;;;35.83;;
44434;SDS011;30138;20.964;105.830;2022-08-03T11:09:39;45.55;;;35.08;;
44434;SDS011;30138;20.964;105.830;2022-08-03T11:14:48;44.95;;;35.45;;
44434;SDS011;30138;20.964;105.830;2022-08-03T11:19:58;44.88;;;37.05;;
44434;SDS011;30138;20.964;105.830;2022-08-03T11:25:07;44.92;;;37.10;;
44434;SDS011;30138;20.964;105.830;2022-08-03T11:30:22;50.55;;;38.42;;
44434;SDS011;30138;20.964;105.830;2022-08-03T11:35:32;49.22;;;38.97;;
44434;SDS011;30138;20.964;105.830;2022-08-03T11:41:03;50.35;;;39.53;;
44434;SDS011;30138;20.964;105.830;2022-08-03T11:46:11;53.60;;;40.05;;
44434;SDS011;30138;20.964;105.830;2022-08-03T11:51:26;54.45;;;43.47;;
44434;SDS011;30138;20.964;105.830;2022-08-03T12:01:52;57.08;;;44.45;;
44434;SDS011;30138;20.964;105.830;2022-08-03T12:07:14;56.10;;;45.03;;
44434;SDS011;30138;20.964;105.830;2022-08-03T12:12:22;54.33;;;44.65;;
44434;SDS011;30138;20.964;105.830;2022-08-03T12:17:32;59.13;;;45.25;;
44434;SDS011;30138;20.964;105.830;2022-08-03T12:22:42;62.10;;;48.05;;
44434;SDS011;30138;20.964;105.830;2022-08-03T12:27:50;64.90;;;47.47;;
44434;SDS011;30138;20.964;105.830;2022-08-03T12:32:58;72.20;;;51.05;;
44434;SDS011;30138;20.964;105.830;2022-08-03T12:38:23;62.60;;;50.10;;
44434;SDS011;30138;20.964;105.830;2022-08-03T12:43:30;73.90;;;54.25;;
44434;SDS011;30138;20.964;105.830;2022-08-03T12:54:19;73.95;;;50.13;;
44434;SDS011;30138;20.964;105.830;2022-08-03T12:59:28;66.70;;;47.90;;
44434;SDS011;30138;20.964;105.830;2022-08-03T13:04:38;68.10;;;45.58;;
44434;SDS011;30138;20.964;105.830;2022-08-03T13:09:49;67.65;;;45.85;;
44434;SDS011;30138;20.964;105.830;2022-08-03T13:14:58;62.88;;;47.25;;
44434;SDS011;30138;20.964;105.830;2022-08-03T13:20:06;67.93;;;46.63;;
44434;SDS011;30138;20.964;105.830;2022-08-03T13:25:16;62.85;;;44.63;;
44434;SDS011;30138;20.964;105.830;2022-08-03T13:30:24;70.30;;;46.42;;
44434;SDS011;30138;20.964;105.830;2022-08-03T13:35:32;68.20;;;46.47;;
44434;SDS011;30138;20.964;105.830;2022-08-03T13:40:41;57.53;;;45.17;;
44434;SDS011;30138;20.964;105.830;2022-08-03T13:45:50;68.37;;;45.87;;
44434;SDS011;30138;20.964;105.830;2022-08-03T13:50:58;54.40;;;42.83;;
44434;SDS011;30138;20.964;105.830;2022-08-03T13:56:07;56.50;;;38.63;;
44434;SDS011;30138;20.964;105.830;2022-08-03T14:01:15;46.05;;;35.03;;
44434;SDS011;30138;20.964;105.830;2022-08-03T14:06:24;36.47;;;31.45;;
44434;SDS011;30138;20.964;105.830;2022-08-03T14:11:34;43.78;;;31.77;;
44434;SDS011;30138;20.964;105.830;2022-08-03T14:16:42;40.92;;;30.60;;
44434;SDS011;30138;20.964;105.830;2022-08-03T14:21:50;42.90;;;28.73;;
44434;SDS011;30138;20.964;105.830;2022-08-03T14:27:01;37.70;;;27.73;;
44434;SDS011;30138;20.964;105.830;2022-08-03T14:32:08;30.55;;;25.00;;
44434;SDS011;30138;20.964;105.830;2022-08-03T14:37:16;30.20;;;23.73;;
44434;SDS011;30138;20.964;105.830;2022-08-03T14:42:27;34.47;;;23.20;;
44434;SDS011;30138;20.964;105.830;2022-08-03T14:47:34;33.25;;;21.92;;
44434;SDS011;30138;20.964;105.830;2022-08-03T14:52:43;33.00;;;23.00;;
44434;SDS011;30138;20.964;105.830;2022-08-03T14:57:53;34.75;;;22.63;;
44434;SDS011;30138;20.964;105.830;2022-08-03T15:03:03;28.50;;;21.80;;
44434;SDS011;30138;20.964;105.830;2022-08-03T15:08:12;31.92;;;21.88;;
44434;SDS011;30138;20.964;105.830;2022-08-03T15:13:21;33.25;;;23.05;;
44434;SDS011;30138;20.964;105.830;2022-08-03T15:18:29;28.05;;;21.08;;
44434;SDS011;30138;20.964;105.830;2022-08-03T15:23:36;30.88;;;20.35;;
44434;SDS011;30138;20.964;105.830;2022-08-03T15:28:47;28.55;;;18.85;;
44434;SDS011;30138;20.964;105.830;2022-08-03T15:33:54;26.20;;;18.35;;
44434;SDS011;30138;20.964;105.830;2022-08-03T15:39:03;27.65;;;18.50;;
44434;SDS011;30138;20.964;105.830;2022-08-03T15:44:13;27.38;;;18.15;;
44434;SDS011;30138;20.964;105.830;2022-08-03T15:49:25;24.83;;;16.85;;
44434;SDS011;30138;20.964;105.830;2022-08-03T15:54:32;27.27;;;16.25;;
44434;SDS011;30138;20.964;105.830;2022-08-03T15:59:42;23.63;;;16.70;;
44434;SDS011;30138;20.964;105.830;2022-08-03T16:04:49;25.77;;;16.25;;
44434;SDS011;30138;20.964;105.830;2022-08-03T16:10:00;26.85;;;15.85;;
44434;SDS011;30138;20.964;105.830;2022-08-03T16:15:10;29.77;;;18.92;;
44434;SDS011;30138;20.964;105.830;2022-08-03T16:20:19;28.13;;;18.23;;
44434;SDS011;30138;20.964;105.830;2022-08-03T16:25:27;34.25;;;18.83;;
44434;SDS011;30138;20.964;105.830;2022-08-03T16:30:36;28.60;;;16.77;;
44434;SDS011;30138;20.964;105.830;2022-08-03T16:35:45;31.63;;;17.55;;
44434;SDS011;30138;20.964;105.830;2022-08-03T16:40:52;26.45;;;17.65;;
44434;SDS011;30138;20.964;105.830;2022-08-03T16:46:02;26.75;;;17.60;;
44434;SDS011;30138;20.964;105.830;2022-08-03T16:51:10;29.77;;;17.25;;
44434;SDS011;30138;20.964;105.830;2022-08-03T16:56:17;27.67;;;18.42;;
44434;SDS011;30138;20.964;105.830;2022-08-03T17:01:27;29.52;;;17.77;;
44434;SDS011;30138;20.964;105.830;2022-08-03T17:06:35;34.63;;;18.08;;
44434;SDS011;30138;20.964;105.830;2022-08-03T17:11:44;38.20;;;19.45;;
44434;SDS011;30138;20.964;105.830;2022-08-03T17:16:56;28.10;;;17.90;;
44434;SDS011;30138;20.964;105.830;2022-08-03T17:22:08;28.42;;;16.63;;
44434;SDS011;30138;20.964;105.830;2022-08-03T17:27:17;31.53;;;17.30;;
44434;SDS011;30138;20.964;105.830;2022-08-03T17:32:30;39.92;;;17.58;;
44434;SDS011;30138;20.964;105.830;2022-08-03T17:37:40;30.60;;;17.63;;
44434;SDS011;30138;20.964;105.830;2022-08-03T17:42:48;30.17;;;17.80;;
44434;SDS011;30138;20.964;105.830;2022-08-03T17:47:57;28.60;;;17.85;;
44434;SDS011;30138;20.964;105.830;2022-08-03T17:53:07;27.80;;;18.05;;
44434;SDS011;30138;20.964;105.830;2022-08-03T17:58:19;35.38;;;18.02;;
44434;SDS011;30138;20.964;105.830;2022-08-03T18:03:43;30.52;;;16.58;;
44434;SDS011;30138;20.964;105.830;2022-08-03T18:08:58;29.25;;;16.92;;
44434;SDS011;30138;20.964;105.830;2022-08-03T18:14:10;31.10;;;15.55;;
44434;SDS011;30138;20.964;105.830;2022-08-03T18:19:24;28.85;;;15.20;;
44434;SDS011;30138;20.964;105.830;2022-08-03T18:24:33;21.83;;;14.63;;
44434;SDS011;30138;20.964;105.830;2022-08-03T18:29:41;24.33;;;14.20;;
44434;SDS011;30138;20.964;105.830;2022-08-03T18:34:51;26.83;;;14.35;;
44434;SDS011;30138;20.964;105.830;2022-08-03T18:40:03;25.70;;;14.32;;
44434;SDS011;30138;20.964;105.830;2022-08-03T18:45:13;23.40;;;14.15;;
44434;SDS011;30138;20.964;105.830;2022-08-03T18:50:27;17.05;;;13.40;;
44434;SDS011;30138;20.964;105.830;2022-08-03T18:55:41;21.58;;;13.80;;
44434;SDS011;30138;20.964;105.830;2022-08-03T19:00:57;22.85;;;14.45;;
44434;SDS011;30138;20.964;105.830;2022-08-03T19:06:20;21.38;;;14.45;;
44434;SDS011;30138;20.964;105.830;2022-08-03T19:11:35;23.02;;;13.63;;
44434;SDS011;30138;20.964;105.830;2022-08-03T19:16:47;23.38;;;13.55;;
44434;SDS011;30138;20.964;105.830;2022-08-03T19:22:02;15.65;;;13.13;;
44434;SDS011;30138;20.964;105.830;2022-08-03T19:27:11;22.58;;;13.63;;
44434;SDS011;30138;20.964;105.830;2022-08-03T19:32:19;22.77;;;13.18;;
44434;SDS011;30138;20.964;105.830;2022-08-03T19:37:31;20.90;;;13.60;;
44434;SDS011;30138;20.964;105.830;2022-08-03T19:42:43;20.15;;;13.45;;
44434;SDS011;30138;20.964;105.830;2022-08-03T19:47:55;17.77;;;12.88;;
44434;SDS011;30138;20.964;105.830;2022-08-03T19:53:11;20.35;;;12.90;;
44434;SDS011;30138;20.964;105.830;2022-08-03T19:58:21;22.70;;;12.85;;
44434;SDS011;30138;20.964;105.830;2022-08-03T20:03:34;18.15;;;12.77;;
44434;SDS011;30138;20.964;105.830;2022-08-03T20:08:44;20.58;;;13.73;;
44434;SDS011;30138;20.964;105.830;2022-08-03T20:13:51;22.00;;;13.43;;
44434;SDS011;30138;20.964;105.830;2022-08-03T20:24:11;21.23;;;13.75;;
44434;SDS011;30138;20.964;105.830;2022-08-03T20:29:27;20.38;;;13.48;;
44434;SDS011;30138;20.964;105.830;2022-08-03T20:34:38;23.73;;;14.02;;
44434;SDS011;30138;20.964;105.830;2022-08-03T20:39:48;23.88;;;13.55;;
44434;SDS011;30138;20.964;105.830;2022-08-03T20:44:57;15.63;;;13.00;;
44434;SDS011;30138;20.964;105.830;2022-08-03T20:50:05;16.63;;;12.48;;
44434;SDS011;30138;20.964;105.830;2022-08-03T20:55:15;19.95;;;12.88;;
44434;SDS011;30138;20.964;105.830;2022-08-03T21:00:23;20.05;;;13.98;;
44434;SDS011;30138;20.964;105.830;2022-08-03T21:05:30;22.55;;;14.80;;
44434;SDS011;30138;20.964;105.830;2022-08-03T21:10:41;24.38;;;15.18;;
44434;SDS011;30138;20.964;105.830;2022-08-03T21:15:50;26.03;;;16.73;;
44434;SDS011;30138;20.964;105.830;2022-08-03T21:20:58;24.67;;;15.88;;
44434;SDS011;30138;20.964;105.830;2022-08-03T21:26:09;29.10;;;16.05;;
44434;SDS011;30138;20.964;105.830;2022-08-03T21:31:17;23.80;;;16.40;;
44434;SDS011;30138;20.964;105.830;2022-08-03T21:36:26;25.10;;;15.45;;
44434;SDS011;30138;20.964;105.830;2022-08-03T21:41:38;28.83;;;16.85;;
44434;SDS011;30138;20.964;105.830;2022-08-03T21:46:46;25.77;;;17.13;;
44434;SDS011;30138;20.964;105.830;2022-08-03T21:51:58;27.20;;;18.00;;
44434;SDS011;30138;20.964;105.830;2022-08-03T21:57:12;27.25;;;18.05;;
44434;SDS011;30138;20.964;105.830;2022-08-03T22:02:24;31.45;;;18.65;;
44434;SDS011;30138;20.964;105.830;2022-08-03T22:07:34;30.50;;;20.20;;
44434;SDS011;30138;20.964;105.830;2022-08-03T22:12:44;33.78;;;20.42;;
44434;SDS011;30138;20.964;105.830;2022-08-03T22:17:52;35.55;;;20.70;;
44434;SDS011;30138;20.964;105.830;2022-08-03T22:23:04;36.22;;;21.25;;
44434;SDS011;30138;20.964;105.830;2022-08-03T22:28:15;36.20;;;21.27;;
44434;SDS011;30138;20.964;105.830;2022-08-03T22:33:23;38.42;;;21.33;;
44434;SDS011;30138;20.964;105.830;2022-08-03T22:38:34;41.17;;;21.33;;
44434;SDS011;30138;20.964;105.830;2022-08-03T22:43:44;40.15;;;21.25;;
44434;SDS011;30138;20.964;105.830;2022-08-03T22:48:52;33.03;;;21.35;;
44434;SDS011;30138;20.964;105.830;2022-08-03T22:54:00;37.08;;;21.23;;
44434;SDS011;30138;20.964;105.830;2022-08-03T22:59:10;39.75;;;22.15;;
44434;SDS011;30138;20.964;105.830;2022-08-03T23:04:18;35.70;;;22.40;;
44434;SDS011;30138;20.964;105.830;2022-08-03T23:09:27;35.67;;;21.83;;
44434;SDS011;30138;20.964;105.830;2022-08-03T23:19:49;36.20;;;21.67;;
44434;SDS011;30138;20.964;105.830;2022-08-03T23:24:57;34.38;;;21.65;;
44434;SDS011;30138;20.964;105.830;2022-08-03T23:30:08;38.67;;;22.80;;
44434;SDS011;30138;20.964;105.830;2022-08-03T23:40:39;47.60;;;22.08;;
44434;SDS011;30138;20.964;105.830;2022-08-03T23:45:50;38.53;;;22.55;;
44434;SDS011;30138;20.964;105.830;2022-08-03T23:51:04;35.92;;;22.58;;
44434;SDS011;30138;20.964;105.830;2022-08-03T23:56:21;36.72;;;22.50;;
